Time,TemperatureF,DewpointF,PressureIn,WindDirection,WindDirectionDegrees,WindSpeedMPH,WindSpeedGustMPH,Humidity,HourlyPrecipIn,Conditions,Clouds,dailyrainin,SoftwareType,DateUTC
2013-06-21 00:00:00,66.4,64.9,30.22,East,90,1.0,5.0,95,0.00,,,0.00,VWS V14.00,2013-06-21 04:00:00,
2013-06-21 00:01:00,66.6,63.9,30.22,East,87,2.0,8.0,91,0.00,,CLR,0.00,VWS V14.01,2013-06-21 04:01:00,
2013-06-21 00:06:00,67.1,63.4,30.22,East,80,2.0,8.0,88,0.00,,CLR,0.00,VWS V14.01,2013-06-21 04:06:00,
2013-06-21 00:11:00,67.3,63.3,30.22,ESE,113,2.0,8.0,87,0.00,,CLR,0.00,VWS V14.01,2013-06-21 04:11:00,
2013-06-21 00:16:00,67.4,63.1,30.22,ENE,76,3.0,8.0,86,0.00,,CLR,0.00,VWS V14.01,2013-06-21 04:16:00,
2013-06-21 00:21:00,67.5,63.2,30.22,ENE,73,2.0,8.0,86,0.00,,CLR,0.00,VWS V14.01,2013-06-21 04:21:00,
2013-06-21 00:26:00,67.5,62.8,30.23,ENE,76,1.0,8.0,85,0.00,,CLR,0.00,VWS V14.01,2013-06-21 04:26:00,
2013-06-21 00:30:00,67.4,63.7,30.23,East,90,2.0,8.0,88,0.00,,,0.00,VWS V14.00,2013-06-21 04:30:00,
2013-06-21 00:31:00,67.3,62.3,30.23,ENE,76,1.0,2.0,84,0.00,,CLR,0.00,VWS V14.01,2013-06-21 04:31:00,
2013-06-21 00:36:00,67.1,62.5,30.23,ENE,76,0.0,2.0,85,0.00,,CLR,0.00,VWS V14.01,2013-06-21 04:36:00,
2013-06-21 00:41:00,66.9,61.9,30.23,ENE,78,0.0,4.0,84,0.00,,CLR,0.00,VWS V14.01,2013-06-21 04:41:00,
2013-06-21 00:46:00,66.5,63.2,30.23,ENE,76,1.0,4.0,89,0.00,,CLR,0.00,VWS V14.01,2013-06-21 04:46:00,
2013-06-21 00:51:00,66.1,62.8,30.23,ENE,78,0.0,4.0,89,0.00,,CLR,0.00,VWS V14.01,2013-06-21 04:51:00,
2013-06-21 00:56:00,65.5,62.5,30.23,ENE,78,0.0,4.0,90,0.00,,CLR,0.00,VWS V14.01,2013-06-21 04:56:00,
2013-06-21 01:00:00,65.2,63.1,30.23,ENE,68,0.0,5.0,93,0.00,,,0.00,VWS V14.00,2013-06-21 05:00:00,
2013-06-21 01:01:00,64.9,62.2,30.23,ENE,78,0.0,0.0,91,0.00,,CLR,0.00,VWS V14.01,2013-06-21 05:01:00,
2013-06-21 01:06:00,64.4,62.0,30.23,ENE,78,0.0,0.0,92,0.00,,CLR,0.00,VWS V14.01,2013-06-21 05:06:00,
2013-06-21 01:11:00,64.0,61.9,30.23,ENE,78,0.0,0.0,93,0.00,,CLR,0.00,VWS V14.01,2013-06-21 05:11:00,
2013-06-21 01:16:00,63.7,61.6,30.23,ENE,78,0.0,0.0,93,0.00,,CLR,0.00,VWS V14.01,2013-06-21 05:16:00,
2013-06-21 01:21:00,63.4,61.7,30.23,ENE,78,0.0,0.0,94,0.00,,CLR,0.00,VWS V14.01,2013-06-21 05:21:00,
2013-06-21 01:26:00,63.2,61.5,30.23,ENE,78,0.0,0.0,94,0.00,,CLR,0.00,VWS V14.01,2013-06-21 05:26:00,
2013-06-21 01:30:00,63.1,62.2,30.23,ENE,68,0.0,0.0,97,0.00,,,0.00,VWS V14.00,2013-06-21 05:30:00,
2013-06-21 01:31:00,63.0,61.2,30.23,ENE,78,0.0,0.0,94,0.00,,CLR,0.00,VWS V14.01,2013-06-21 05:31:00,
2013-06-21 01:36:00,62.9,61.5,30.23,ENE,78,0.0,0.0,95,0.00,,CLR,0.00,VWS V14.01,2013-06-21 05:36:00,
2013-06-21 01:41:00,62.7,61.2,30.23,ENE,78,0.0,0.0,95,0.00,,CLR,0.00,VWS V14.01,2013-06-21 05:41:00,
2013-06-21 01:46:00,62.4,61.0,30.23,ENE,78,0.0,0.0,95,0.00,,CLR,0.00,VWS V14.01,2013-06-21 05:46:00,
2013-06-21 01:51:00,62.2,60.8,30.23,ENE,78,0.0,0.0,95,0.00,,CLR,0.00,VWS V14.01,2013-06-21 05:51:00,
2013-06-21 01:56:00,62.1,60.7,30.22,ENE,78,0.0,0.0,95,0.00,,CLR,0.00,VWS V14.01,2013-06-21 05:56:00,
2013-06-21 02:00:00,62.1,61.5,30.22,ENE,68,0.0,0.0,98,0.00,,,0.00,VWS V14.00,2013-06-21 06:00:00,
2013-06-21 02:01:00,62.0,60.6,30.23,ENE,78,0.0,0.0,95,0.00,,CLR,0.00,VWS V14.01,2013-06-21 06:01:00,
2013-06-21 02:06:00,61.8,60.7,30.23,ENE,78,0.0,0.0,96,0.00,,CLR,0.00,VWS V14.01,2013-06-21 06:06:00,
2013-06-21 02:11:00,61.6,60.5,30.23,ENE,78,0.0,0.0,96,0.00,,CLR,0.00,VWS V14.01,2013-06-21 06:11:00,
2013-06-21 02:16:00,61.5,60.3,30.23,ENE,78,0.0,0.0,96,0.00,,CLR,0.00,VWS V14.01,2013-06-21 06:16:00,
2013-06-21 02:21:00,61.4,60.2,30.22,ENE,78,0.0,0.0,96,0.00,,CLR,0.00,VWS V14.01,2013-06-21 06:21:00,
2013-06-21 02:26:00,61.3,60.2,30.22,ENE,78,0.0,0.0,96,0.00,,CLR,0.00,VWS V14.01,2013-06-21 06:26:00,
2013-06-21 02:30:00,61.3,61.0,30.22,ENE,68,0.0,0.0,99,0.00,,,0.00,VWS V14.00,2013-06-21 06:30:00,
2013-06-21 02:31:00,61.3,60.2,30.22,ENE,78,0.0,0.0,96,0.00,,CLR,0.00,VWS V14.01,2013-06-21 06:31:00,
2013-06-21 02:36:00,61.2,60.0,30.22,ENE,78,0.0,0.0,96,0.00,,CLR,0.00,VWS V14.01,2013-06-21 06:36:00,
2013-06-21 02:41:00,61.1,60.0,30.23,ENE,78,0.0,0.0,96,0.00,,CLR,0.00,VWS V14.01,2013-06-21 06:41:00,
2013-06-21 02:46:00,60.8,59.7,30.23,ENE,78,0.0,0.0,96,0.00,,CLR,0.00,VWS V14.01,2013-06-21 06:46:00,
2013-06-21 02:51:00,60.6,59.5,30.23,ENE,78,0.0,0.0,96,0.00,,CLR,0.00,VWS V14.01,2013-06-21 06:51:00,
2013-06-21 02:57:00,60.6,59.5,30.22,ENE,78,0.0,0.0,96,0.00,,CLR,0.00,VWS V14.01,2013-06-21 06:57:00,
2013-06-21 03:00:00,60.5,60.2,30.22,ENE,68,0.0,0.0,99,0.00,,,0.00,VWS V14.00,2013-06-21 07:00:00,
2013-06-21 03:02:00,60.5,59.7,30.22,ENE,78,0.0,0.0,97,0.00,,CLR,0.00,VWS V14.01,2013-06-21 07:02:00,
2013-06-21 03:07:00,60.4,59.5,30.22,ENE,78,0.0,0.0,97,0.00,,CLR,0.00,VWS V14.01,2013-06-21 07:07:00,
2013-06-21 03:12:00,60.4,59.5,30.22,ENE,78,0.0,0.0,97,0.00,,CLR,0.00,VWS V14.01,2013-06-21 07:12:00,
2013-06-21 03:17:00,60.3,59.5,30.22,ENE,78,0.0,0.0,97,0.00,,CLR,0.00,VWS V14.01,2013-06-21 07:17:00,
2013-06-21 03:22:00,60.3,59.5,30.22,ENE,78,0.0,0.0,97,0.00,,CLR,0.00,VWS V14.01,2013-06-21 07:22:00,
2013-06-21 03:27:00,60.2,59.3,30.22,ENE,78,0.0,0.0,97,0.00,,CLR,0.00,VWS V14.01,2013-06-21 07:27:00,
2013-06-21 03:30:00,60.1,60.1,30.22,ENE,68,0.0,0.0,100,0.00,,,0.00,VWS V14.00,2013-06-21 07:30:00,
2013-06-21 03:32:00,60.0,59.2,30.22,ENE,78,0.0,0.0,97,0.00,,CLR,0.00,VWS V14.01,2013-06-21 07:32:00,
2013-06-21 03:37:00,60.1,59.2,30.23,NE,40,1.0,2.0,97,0.00,,CLR,0.00,VWS V14.01,2013-06-21 07:37:00,
2013-06-21 03:42:00,60.1,59.2,30.23,NE,40,0.0,2.0,97,0.00,,CLR,0.00,VWS V14.01,2013-06-21 07:42:00,
2013-06-21 03:47:00,60.2,59.3,30.23,NE,40,0.0,2.0,97,0.00,,CLR,0.00,VWS V14.01,2013-06-21 07:47:00,
2013-06-21 03:52:00,60.2,59.3,30.23,NE,40,0.0,2.0,97,0.00,,CLR,0.00,VWS V14.01,2013-06-21 07:52:00,
2013-06-21 03:57:00,60.1,59.2,30.23,NE,40,0.0,2.0,97,0.00,,CLR,0.00,VWS V14.01,2013-06-21 07:57:00,
2013-06-21 04:00:00,60.1,60.1,30.23,ENE,68,0.0,2.0,100,0.00,,,0.00,VWS V14.00,2013-06-21 08:00:00,
2013-06-21 04:02:00,60.0,59.2,30.23,NE,40,0.0,0.0,97,0.00,,CLR,0.00,VWS V14.01,2013-06-21 08:02:00,
2013-06-21 04:07:00,59.9,59.0,30.23,NE,40,0.0,0.0,97,0.00,,CLR,0.00,VWS V14.01,2013-06-21 08:07:00,
2013-06-21 04:12:00,59.8,59.0,30.23,NE,40,0.0,0.0,97,0.00,,CLR,0.00,VWS V14.01,2013-06-21 08:12:00,
2013-06-21 04:17:00,59.5,58.7,30.23,NE,40,0.0,0.0,97,0.00,,CLR,0.00,VWS V14.01,2013-06-21 08:17:00,
2013-06-21 04:22:00,59.3,58.2,30.23,NE,40,0.0,0.0,96,0.00,,CLR,0.00,VWS V14.01,2013-06-21 08:22:00,
2013-06-21 04:27:00,59.1,58.0,30.23,NE,40,0.0,0.0,96,0.00,,CLR,0.00,VWS V14.01,2013-06-21 08:27:00,
2013-06-21 04:30:00,59.0,58.7,30.23,ENE,68,0.0,0.0,99,0.00,,,0.00,VWS V14.00,2013-06-21 08:30:00,
2013-06-21 04:32:00,59.0,57.9,30.23,NE,40,0.0,0.0,96,0.00,,CLR,0.00,VWS V14.01,2013-06-21 08:32:00,
2013-06-21 04:37:00,58.9,57.8,30.23,NE,40,0.0,0.0,96,0.00,,CLR,0.00,VWS V14.01,2013-06-21 08:37:00,
2013-06-21 04:42:00,58.8,57.7,30.23,NE,40,0.0,0.0,96,0.00,,CLR,0.00,VWS V14.01,2013-06-21 08:42:00,
2013-06-21 04:47:00,58.7,57.6,30.23,NE,40,0.0,0.0,96,0.00,,CLR,0.00,VWS V14.01,2013-06-21 08:47:00,
2013-06-21 04:52:00,58.5,57.4,30.23,NE,40,0.0,0.0,96,0.00,,CLR,0.00,VWS V14.01,2013-06-21 08:52:00,
2013-06-21 04:57:00,58.4,57.3,30.24,NE,40,0.0,0.0,96,0.00,,CLR,0.00,VWS V14.01,2013-06-21 08:57:00,
2013-06-21 05:00:00,58.4,58.1,30.23,ENE,68,0.0,0.0,99,0.00,,,0.00,VWS V14.00,2013-06-21 09:00:00,
2013-06-21 05:02:00,58.3,57.2,30.23,NE,40,0.0,0.0,96,0.00,,CLR,0.00,VWS V14.01,2013-06-21 09:02:00,
2013-06-21 05:07:00,58.2,57.1,30.23,NE,40,0.0,0.0,96,0.00,,CLR,0.00,VWS V14.01,2013-06-21 09:07:00,
2013-06-21 05:12:00,58.1,57.0,30.23,NE,40,0.0,0.0,96,0.00,,CLR,0.00,VWS V14.01,2013-06-21 09:12:00,
2013-06-21 05:17:00,57.9,56.8,30.23,NE,40,0.0,0.0,96,0.00,,CLR,0.00,VWS V14.01,2013-06-21 09:17:00,
2013-06-21 05:22:00,57.8,56.7,30.23,NE,40,0.0,0.0,96,0.00,,CLR,0.00,VWS V14.01,2013-06-21 09:22:00,
2013-06-21 05:27:00,57.7,56.6,30.23,NE,40,0.0,0.0,96,0.00,,CLR,0.00,VWS V14.01,2013-06-21 09:27:00,
2013-06-21 05:30:00,57.6,57.3,30.23,ENE,68,0.0,0.0,99,0.00,,,0.00,VWS V14.00,2013-06-21 09:30:00,
2013-06-21 05:32:00,57.6,56.5,30.23,NE,40,0.0,0.0,96,0.00,,CLR,0.00,VWS V14.01,2013-06-21 09:32:00,
2013-06-21 05:37:00,57.5,56.4,30.23,NE,40,0.0,0.0,96,0.00,,CLR,0.00,VWS V14.01,2013-06-21 09:37:00,
2013-06-21 05:42:00,57.4,56.3,30.24,NE,40,0.0,0.0,96,0.00,,CLR,0.00,VWS V14.01,2013-06-21 09:42:00,
2013-06-21 05:47:00,57.4,56.3,30.23,NE,40,0.0,0.0,96,0.00,,CLR,0.00,VWS V14.01,2013-06-21 09:47:00,
2013-06-21 05:52:00,57.3,56.5,30.24,NE,40,0.0,0.0,97,0.00,,CLR,0.00,VWS V14.01,2013-06-21 09:52:00,
2013-06-21 05:57:00,57.3,56.5,30.23,NE,40,0.0,0.0,97,0.00,,CLR,0.00,VWS V14.01,2013-06-21 09:57:00,
2013-06-21 06:00:00,57.2,57.2,30.24,ENE,68,0.0,0.0,100,0.00,,,0.00,VWS V14.00,2013-06-21 10:00:00,
2013-06-21 06:02:00,57.2,56.4,30.24,NE,40,0.0,0.0,97,0.00,,CLR,0.00,VWS V14.01,2013-06-21 10:02:00,
2013-06-21 06:07:00,57.3,56.5,30.24,NE,40,0.0,0.0,97,0.00,,CLR,0.00,VWS V14.01,2013-06-21 10:07:00,
2013-06-21 06:12:00,57.2,56.4,30.24,NE,40,0.0,0.0,97,0.00,,CLR,0.00,VWS V14.01,2013-06-21 10:12:00,
2013-06-21 06:17:00,57.2,56.4,30.24,NE,40,0.0,0.0,97,0.00,,CLR,0.00,VWS V14.01,2013-06-21 10:17:00,
2013-06-21 06:22:00,57.1,56.3,30.24,NE,40,0.0,0.0,97,0.00,,CLR,0.00,VWS V14.01,2013-06-21 10:22:00,
2013-06-21 06:27:00,57.1,56.3,30.25,NE,40,0.0,0.0,97,0.00,,CLR,0.00,VWS V14.01,2013-06-21 10:27:00,
2013-06-21 06:30:00,57.0,57.0,30.25,ENE,68,0.0,0.0,100,0.00,,,0.00,VWS V14.00,2013-06-21 10:30:00,
2013-06-21 06:32:00,57.0,56.2,30.25,NE,40,0.0,0.0,97,0.00,,CLR,0.00,VWS V14.01,2013-06-21 10:32:00,
2013-06-21 06:37:00,57.0,56.2,30.25,NE,40,0.0,0.0,97,0.00,,CLR,0.00,VWS V14.01,2013-06-21 10:37:00,
2013-06-21 06:42:00,57.1,56.3,30.25,NE,40,0.0,0.0,97,0.00,,CLR,0.00,VWS V14.01,2013-06-21 10:42:00,
2013-06-21 06:47:00,57.2,56.4,30.25,NE,40,0.0,0.0,97,0.00,,CLR,0.00,VWS V14.01,2013-06-21 10:47:00,
2013-06-21 06:52:00,57.2,56.4,30.25,NE,40,0.0,0.0,97,0.00,,CLR,0.00,VWS V14.01,2013-06-21 10:52:00,
2013-06-21 06:57:00,57.2,56.4,30.25,NE,40,0.0,0.0,97,0.00,,CLR,0.00,VWS V14.01,2013-06-21 10:57:00,
2013-06-21 07:00:00,57.2,57.2,30.24,ENE,68,0.0,0.0,100,0.00,,,0.00,VWS V14.00,2013-06-21 11:00:00,
2013-06-21 07:02:00,57.3,56.5,30.25,NE,40,0.0,0.0,97,0.00,,CLR,0.00,VWS V14.01,2013-06-21 11:02:00,
2013-06-21 07:07:00,57.3,56.5,30.25,NE,40,0.0,0.0,97,0.00,,CLR,0.00,VWS V14.01,2013-06-21 11:07:00,
2013-06-21 07:12:00,57.4,56.6,30.24,NE,40,0.0,0.0,97,0.00,,CLR,0.00,VWS V14.01,2013-06-21 11:12:00,
2013-06-21 07:17:00,57.5,56.9,30.25,NE,40,0.0,0.0,98,0.00,,CLR,0.00,VWS V14.01,2013-06-21 11:17:00,
2013-06-21 07:22:00,57.7,57.1,30.25,NE,40,0.0,0.0,98,0.00,,CLR,0.00,VWS V14.01,2013-06-21 11:22:00,
2013-06-21 07:27:00,57.8,57.2,30.25,NE,40,0.0,0.0,98,0.00,,CLR,0.00,VWS V14.01,2013-06-21 11:27:00,
2013-06-21 07:30:00,57.9,57.9,30.25,ENE,68,0.0,0.0,100,0.00,,,0.00,VWS V14.00,2013-06-21 11:30:00,
2013-06-21 07:32:00,58.0,57.4,30.25,NE,40,0.0,0.0,98,0.00,,CLR,0.00,VWS V14.01,2013-06-21 11:32:00,
2013-06-21 07:37:00,58.3,57.7,30.25,NE,40,0.0,0.0,98,0.00,,CLR,0.00,VWS V14.01,2013-06-21 11:37:00,
2013-06-21 07:42:00,58.7,58.1,30.25,NE,40,0.0,0.0,98,0.00,,CLR,0.00,VWS V14.01,2013-06-21 11:42:00,
2013-06-21 07:47:00,59.4,58.8,30.25,NE,40,0.0,0.0,98,0.00,,CLR,0.00,VWS V14.01,2013-06-21 11:47:00,
2013-06-21 07:52:00,60.0,59.4,30.25,ENE,63,0.0,1.0,98,0.00,,CLR,0.00,VWS V14.01,2013-06-21 11:52:00,
2013-06-21 07:57:00,60.8,60.0,30.26,ENE,63,0.0,1.0,97,0.00,,CLR,0.00,VWS V14.01,2013-06-21 11:57:00,
2013-06-21 08:00:00,61.1,60.8,30.26,ENE,68,0.0,1.0,99,0.00,,,0.00,VWS V14.00,2013-06-21 12:00:00,
2013-06-21 08:02:00,61.5,60.3,30.26,NE,37,0.0,1.0,96,0.00,,CLR,0.00,VWS V14.01,2013-06-21 12:02:00,
2013-06-21 08:07:00,62.1,60.4,30.26,NW,312,0.0,2.0,94,0.00,,CLR,0.00,VWS V14.01,2013-06-21 12:07:00,
2013-06-21 08:12:00,62.9,60.8,30.26,NW,313,0.0,2.0,93,0.00,,CLR,0.00,VWS V14.01,2013-06-21 12:12:00,
2013-06-21 08:17:00,63.7,60.4,30.26,NW,304,0.0,2.0,89,0.00,,CLR,0.00,VWS V14.01,2013-06-21 12:17:00,
2013-06-21 08:22:00,64.5,60.5,30.26,NE,40,0.0,2.0,87,0.00,,CLR,0.00,VWS V14.01,2013-06-21 12:22:00,
2013-06-21 08:27:00,65.0,60.0,30.26,NE,44,0.0,2.0,84,0.00,,CLR,0.00,VWS V14.01,2013-06-21 12:27:00,
2013-06-21 08:30:00,65.3,61.7,30.26,NE,45,0.0,2.0,88,0.00,,,0.00,VWS V14.00,2013-06-21 12:30:00,
2013-06-21 08:32:00,65.6,58.9,30.26,East,91,1.0,3.0,79,0.00,,CLR,0.00,VWS V14.01,2013-06-21 12:32:00,
2013-06-21 08:37:00,66.3,58.9,30.26,North,5,0.0,3.0,77,0.00,,CLR,0.00,VWS V14.01,2013-06-21 12:37:00,
2013-06-21 08:42:00,67.0,59.9,30.26,NE,50,0.0,3.0,78,0.00,,CLR,0.00,VWS V14.01,2013-06-21 12:42:00,
2013-06-21 08:47:00,67.7,61.3,30.26,NE,51,0.0,3.0,80,0.00,,CLR,0.00,VWS V14.01,2013-06-21 12:47:00,
2013-06-21 08:52:00,68.2,58.8,30.26,East,82,0.0,3.0,72,0.00,,CLR,0.00,VWS V14.01,2013-06-21 12:52:00,
2013-06-21 08:57:00,68.7,58.1,30.26,ENE,68,1.0,3.0,69,0.00,,CLR,0.00,VWS V14.01,2013-06-21 12:57:00,
2013-06-21 09:00:00,68.9,61.0,30.26,East,90,0.0,3.0,76,0.00,,,0.00,VWS V14.00,2013-06-21 13:00:00,
2013-06-21 09:02:00,69.0,58.8,30.26,ENE,67,0.0,1.0,70,0.00,,CLR,0.00,VWS V14.01,2013-06-21 13:02:00,
2013-06-21 09:07:00,69.3,60.3,30.26,East,81,0.0,3.0,73,0.00,,CLR,0.00,VWS V14.01,2013-06-21 13:07:00,
2013-06-21 09:12:00,69.8,58.8,30.26,East,81,1.0,3.0,68,0.00,,CLR,0.00,VWS V14.01,2013-06-21 13:12:00,
2013-06-21 09:17:00,69.9,57.6,30.26,North,355,0.0,3.0,65,0.00,,CLR,0.00,VWS V14.01,2013-06-21 13:17:00,
2013-06-21 09:22:00,70.3,57.1,30.26,East,81,3.0,5.0,63,0.00,,CLR,0.00,VWS V14.01,2013-06-21 13:22:00,
2013-06-21 09:27:00,70.6,58.7,30.26,East,87,0.0,5.0,66,0.00,,CLR,0.00,VWS V14.01,2013-06-21 13:27:00,
2013-06-21 09:30:00,70.7,58.8,30.26,East,90,0.0,5.0,66,0.00,,,0.00,VWS V14.00,2013-06-21 13:30:00,
2013-06-21 09:32:00,71.0,59.5,30.26,East,87,0.0,0.0,67,0.00,,CLR,0.00,VWS V14.01,2013-06-21 13:32:00,
2013-06-21 09:37:00,71.4,58.2,30.26,ENE,72,0.0,1.0,63,0.00,,CLR,0.00,VWS V14.01,2013-06-21 13:37:00,
2013-06-21 09:42:00,71.8,59.8,30.26,NNE,19,0.0,3.0,66,0.00,,CLR,0.00,VWS V14.01,2013-06-21 13:42:00,
2013-06-21 09:47:00,71.6,59.2,30.26,NNE,19,0.0,3.0,65,0.00,,CLR,0.00,VWS V14.01,2013-06-21 13:47:00,
2013-06-21 09:52:00,72.0,56.0,30.26,ENE,57,0.0,3.0,57,0.00,,CLR,0.00,VWS V14.01,2013-06-21 13:52:00,
2013-06-21 09:57:00,72.6,61.0,30.26,ENE,60,1.0,3.0,67,0.00,,CLR,0.00,VWS V14.01,2013-06-21 13:57:00,
2013-06-21 10:00:00,72.7,56.6,30.26,East,90,0.0,6.0,57,0.00,,,0.00,VWS V14.00,2013-06-21 14:00:00,
2013-06-21 10:02:00,72.8,58.1,30.26,NE,40,1.0,3.0,60,0.00,,CLR,0.00,VWS V14.01,2013-06-21 14:02:00,
2013-06-21 10:07:00,73.0,55.9,30.26,NE,53,2.0,3.0,55,0.00,,CLR,0.00,VWS V14.01,2013-06-21 14:07:00,
2013-06-21 10:12:00,73.1,56.0,30.26,ENE,73,0.0,3.0,55,0.00,,CLR,0.00,VWS V14.01,2013-06-21 14:12:00,
2013-06-21 10:17:00,73.0,55.9,30.25,ENE,73,0.0,3.0,55,0.00,,CLR,0.00,VWS V14.01,2013-06-21 14:17:00,
2013-06-21 10:22:00,73.2,56.1,30.26,East,84,0.0,5.0,55,0.00,,CLR,0.00,VWS V14.01,2013-06-21 14:22:00,
2013-06-21 10:27:00,73.6,54.9,30.26,East,83,0.0,5.0,52,0.00,,CLR,0.00,VWS V14.01,2013-06-21 14:27:00,
2013-06-21 10:30:00,73.8,57.1,30.26,East,90,1.0,6.0,56,0.00,,,0.00,VWS V14.00,2013-06-21 14:30:00,
2013-06-21 10:32:00,74.1,58.4,30.26,ESE,123,0.0,3.0,58,0.00,,CLR,0.00,VWS V14.01,2013-06-21 14:32:00,
2013-06-21 10:37:00,74.7,58.0,30.25,ENE,67,2.0,5.0,56,0.00,,CLR,0.00,VWS V14.01,2013-06-21 14:37:00,
2013-06-21 10:42:00,74.9,57.7,30.26,ENE,74,2.0,5.0,55,0.00,,CLR,0.00,VWS V14.01,2013-06-21 14:42:00,
2013-06-21 10:47:00,74.9,58.7,30.26,NNE,30,3.0,5.0,57,0.00,,CLR,0.00,VWS V14.01,2013-06-21 14:47:00,
2013-06-21 10:52:00,74.8,57.1,30.26,ENE,77,0.0,5.0,54,0.00,,CLR,0.00,VWS V14.01,2013-06-21 14:52:00,
2013-06-21 10:57:00,74.9,55.6,30.26,SE,133,0.0,5.0,51,0.00,,CLR,0.00,VWS V14.01,2013-06-21 14:57:00,
2013-06-21 11:00:00,75.1,57.3,30.26,East,90,1.0,5.0,54,0.00,,,0.00,VWS V14.00,2013-06-21 15:00:00,
2013-06-21 11:02:00,75.4,55.5,30.26,SE,133,1.0,4.0,50,0.00,,CLR,0.00,VWS V14.01,2013-06-21 15:02:00,
2013-06-21 11:07:00,75.3,54.8,30.26,SE,136,2.0,7.0,49,0.00,,CLR,0.00,VWS V14.01,2013-06-21 15:07:00,
2013-06-21 11:12:00,75.3,55.9,30.25,NNE,30,0.0,7.0,51,0.00,,CLR,0.00,VWS V14.01,2013-06-21 15:12:00,
2013-06-21 11:17:00,75.5,56.7,30.25,NE,53,1.0,7.0,52,0.00,,CLR,0.00,VWS V14.01,2013-06-21 15:17:00,
2013-06-21 11:22:00,75.5,56.1,30.25,ESE,106,5.0,7.0,51,0.00,,CLR,0.00,VWS V14.01,2013-06-21 15:22:00,
2013-06-21 11:27:00,75.3,57.5,30.25,SE,138,2.0,9.0,54,0.00,,CLR,0.00,VWS V14.01,2013-06-21 15:27:00,
2013-06-21 11:30:00,75.3,58.5,30.25,ESE,112,3.0,9.0,56,0.00,,,0.00,VWS V14.00,2013-06-21 15:30:00,
2013-06-21 11:32:00,75.4,56.0,30.25,SE,127,2.0,8.0,51,0.00,,CLR,0.00,VWS V14.01,2013-06-21 15:32:00,
2013-06-21 11:37:00,75.6,55.1,30.25,SE,129,0.0,8.0,49,0.00,,CLR,0.00,VWS V14.01,2013-06-21 15:37:00,
2013-06-21 11:42:00,75.8,58.0,30.25,NW,317,0.0,8.0,54,0.00,,CLR,0.00,VWS V14.01,2013-06-21 15:42:00,
2013-06-21 11:47:00,76.2,58.9,30.25,ESE,113,0.0,8.0,55,0.00,,CLR,0.00,VWS V14.01,2013-06-21 15:47:00,
2013-06-21 11:52:00,76.6,58.2,30.25,ENE,59,0.0,8.0,53,0.00,,CLR,0.00,VWS V14.01,2013-06-21 15:52:00,
2013-06-21 11:57:00,76.9,57.4,30.25,NE,56,0.0,8.0,51,0.00,,CLR,0.00,VWS V14.01,2013-06-21 15:57:00,
2013-06-21 12:00:00,76.9,60.5,30.25,ESE,112,1.0,8.0,57,0.00,,,0.00,VWS V14.00,2013-06-21 16:00:00,
2013-06-21 12:02:00,76.7,57.8,30.25,ESE,115,2.0,3.0,52,0.00,,CLR,0.00,VWS V14.01,2013-06-21 16:02:00,
2013-06-21 12:07:00,76.8,59.4,30.25,ESE,116,3.0,6.0,55,0.00,,CLR,0.00,VWS V14.01,2013-06-21 16:07:00,
2013-06-21 12:12:00,77.0,58.0,30.25,NNW,327,1.0,6.0,52,0.00,,CLR,0.00,VWS V14.01,2013-06-21 16:12:00,
2013-06-21 12:17:00,77.1,59.7,30.25,NE,38,1.0,6.0,55,0.00,,CLR,0.00,VWS V14.01,2013-06-21 16:17:00,
2013-06-21 12:22:00,77.3,60.4,30.25,North,355,0.0,6.0,56,0.00,,CLR,0.00,VWS V14.01,2013-06-21 16:22:00,
2013-06-21 12:27:00,77.6,59.7,30.25,East,81,3.0,7.0,54,0.00,,CLR,0.00,VWS V14.01,2013-06-21 16:27:00,
2013-06-21 12:30:00,77.6,60.7,30.25,East,90,2.0,8.0,56,0.00,,,0.00,VWS V14.00,2013-06-21 16:30:00,
2013-06-21 12:32:00,77.2,58.2,30.25,ESE,106,1.0,8.0,52,0.00,,CLR,0.00,VWS V14.01,2013-06-21 16:32:00,
2013-06-21 12:37:00,77.1,59.7,30.25,East,88,0.0,8.0,55,0.00,,CLR,0.00,VWS V14.01,2013-06-21 16:37:00,
2013-06-21 12:42:00,77.4,61.0,30.24,ENE,69,4.0,8.0,57,0.00,,CLR,0.00,VWS V14.01,2013-06-21 16:42:00,
2013-06-21 12:47:00,77.4,61.0,30.24,East,86,0.0,8.0,57,0.00,,CLR,0.00,VWS V14.01,2013-06-21 16:47:00,
2013-06-21 12:52:00,77.6,62.2,30.24,WNW,289,1.0,8.0,59,0.00,,CLR,0.00,VWS V14.01,2013-06-21 16:52:00,
2013-06-21 12:58:00,77.8,62.8,30.24,NNE,29,3.0,8.0,60,0.00,,CLR,0.00,VWS V14.01,2013-06-21 16:58:00,
2013-06-21 13:00:00,78.0,63.0,30.24,East,90,2.0,10.0,60,0.00,,,0.00,VWS V14.00,2013-06-21 17:00:00,
2013-06-21 13:03:00,78.2,63.7,30.24,East,94,1.0,4.0,61,0.00,,CLR,0.00,VWS V14.01,2013-06-21 17:03:00,
2013-06-21 13:08:00,78.5,62.5,30.24,ENE,74,3.0,4.0,58,0.00,,CLR,0.00,VWS V14.01,2013-06-21 17:08:00,
2013-06-21 13:13:00,78.9,62.4,30.24,NE,37,0.0,5.0,57,0.00,,CLR,0.00,VWS V14.01,2013-06-21 17:13:00,
2013-06-21 13:18:00,78.7,61.7,30.24,ENE,63,3.0,5.0,56,0.00,,CLR,0.00,VWS V14.01,2013-06-21 17:18:00,
2013-06-21 13:23:00,78.7,64.1,30.24,ESE,117,0.0,5.0,61,0.00,,CLR,0.00,VWS V14.01,2013-06-21 17:23:00,
2013-06-21 13:28:00,78.7,61.7,30.25,SE,124,2.0,7.0,56,0.00,,CLR,0.00,VWS V14.01,2013-06-21 17:28:00,
2013-06-21 13:30:00,78.7,62.7,30.25,ESE,112,2.0,8.0,58,0.00,,,0.00,VWS V14.00,2013-06-21 17:30:00,
2013-06-21 13:33:00,78.6,65.0,30.25,SE,139,5.0,5.0,63,0.00,,CLR,0.00,VWS V14.01,2013-06-21 17:33:00,
2013-06-21 13:39:00,78.9,62.9,30.25,NE,54,1.0,5.0,58,0.00,,CLR,0.00,VWS V14.01,2013-06-21 17:39:00,
2013-06-21 13:44:00,79.3,62.8,30.25,NE,47,2.0,5.0,57,0.00,,CLR,0.00,VWS V14.01,2013-06-21 17:44:00,
2013-06-21 13:46:00,79.4,61.8,30.24,East,86,3.0,5.0,55,0.00,,CLR,0.00,VWS V14.01,2013-06-21 17:46:00,
2013-06-21 13:51:00,79.5,62.5,30.24,West,276,1.0,5.0,56,0.00,,CLR,0.00,VWS V14.01,2013-06-21 17:51:00,
2013-06-21 13:56:00,79.7,62.1,30.25,West,261,1.0,5.0,55,0.00,,CLR,0.00,VWS V14.01,2013-06-21 17:56:00,
2013-06-21 14:00:00,79.8,64.2,30.25,WNW,292,1.0,5.0,59,0.00,,,0.00,VWS V14.00,2013-06-21 18:00:00,
2013-06-21 14:01:00,79.8,64.7,30.25,ENE,57,2.0,5.0,60,0.00,,CLR,0.00,VWS V14.01,2013-06-21 18:01:00,
2013-06-21 14:07:00,80.0,63.4,30.24,SE,142,0.0,6.0,57,0.00,,CLR,0.00,VWS V14.01,2013-06-21 18:07:00,
2013-06-21 14:12:00,79.9,63.8,30.24,ESE,118,0.0,6.0,58,0.00,,CLR,0.00,VWS V14.01,2013-06-21 18:12:00,
2013-06-21 14:17:00,80.4,62.8,30.23,ENE,66,0.0,6.0,55,0.00,,CLR,0.00,VWS V14.01,2013-06-21 18:17:00,
2013-06-21 14:22:00,80.3,63.7,30.23,NE,55,4.0,7.0,57,0.00,,CLR,0.00,VWS V14.01,2013-06-21 18:22:00,
2013-06-21 14:23:00,80.3,62.2,30.23,SE,132,0.0,7.0,54,0.00,,CLR,0.00,VWS V14.01,2013-06-21 18:23:00,
2013-06-21 14:24:00,80.2,62.1,30.23,SE,132,0.0,7.0,54,0.00,,CLR,0.00,VWS V14.01,2013-06-21 18:24:00,
2013-06-21 14:29:00,80.2,63.1,30.23,NNE,15,3.0,7.0,56,0.00,,CLR,0.00,VWS V14.01,2013-06-21 18:29:00,
2013-06-21 14:30:00,80.2,64.6,30.23,ENE,68,1.0,7.0,59,0.00,,,0.00,VWS V14.00,2013-06-21 18:30:00,
2013-06-21 14:34:00,80.5,65.3,30.23,ESE,119,1.0,7.0,60,0.00,,CLR,0.00,VWS V14.01,2013-06-21 18:34:00,
2013-06-21 14:39:00,80.8,65.6,30.23,East,83,0.0,7.0,60,0.00,,CLR,0.00,VWS V14.01,2013-06-21 18:39:00,
2013-06-21 14:44:00,80.9,62.2,30.23,ENE,68,3.0,7.0,53,0.00,,CLR,0.00,VWS V14.01,2013-06-21 18:44:00,
2013-06-21 14:45:00,80.9,64.2,30.23,East,95,6.0,9.0,57,0.00,,CLR,0.00,VWS V14.01,2013-06-21 18:45:00,
2013-06-21 14:46:00,80.9,64.2,30.23,ESE,113,5.0,9.0,57,0.00,,CLR,0.00,VWS V14.01,2013-06-21 18:46:00,
2013-06-21 14:51:00,80.6,62.4,30.22,ESE,103,2.0,9.0,54,0.00,,CLR,0.00,VWS V14.01,2013-06-21 18:51:00,
2013-06-21 14:56:00,80.8,67.0,30.23,East,101,1.0,9.0,63,0.00,,CLR,0.00,VWS V14.01,2013-06-21 18:56:00,
2013-06-21 15:00:00,81.0,64.8,30.22,East,90,2.0,9.0,58,0.00,,,0.00,VWS V14.00,2013-06-21 19:00:00,
2013-06-21 15:01:00,81.0,64.3,30.22,East,98,0.0,1.0,57,0.00,,CLR,0.00,VWS V14.01,2013-06-21 19:01:00,
2013-06-21 15:06:00,81.2,67.4,30.22,NE,43,0.0,4.0,63,0.00,,CLR,0.00,VWS V14.01,2013-06-21 19:06:00,
2013-06-21 15:11:00,81.2,63.5,30.22,NE,41,3.0,5.0,55,0.00,,CLR,0.00,VWS V14.01,2013-06-21 19:11:00,
2013-06-21 15:16:00,81.3,64.6,30.22,SE,138,0.0,5.0,57,0.00,,CLR,0.00,VWS V14.01,2013-06-21 19:16:00,
2013-06-21 15:20:00,81.7,66.0,30.22,NNE,21,0.0,5.0,59,0.00,,CLR,0.00,VWS V14.01,2013-06-21 19:20:00,
2013-06-21 15:25:00,81.8,65.6,30.22,WNW,294,1.0,5.0,58,0.00,,CLR,0.00,VWS V14.01,2013-06-21 19:25:00,
2013-06-21 15:30:00,82.1,66.8,30.22,ENE,70,1.0,2.0,60,0.00,,CLR,0.00,VWS V14.01,2013-06-21 19:30:00,
2013-06-21 15:35:00,82.0,63.7,30.22,East,80,3.0,8.0,54,0.00,,CLR,0.00,VWS V14.01,2013-06-21 19:35:00,
2013-06-21 15:40:00,81.9,63.1,30.21,ENE,67,1.0,8.0,53,0.00,,CLR,0.00,VWS V14.01,2013-06-21 19:40:00,
2013-06-21 15:42:00,81.9,66.7,30.22,NE,55,7.0,8.0,60,0.00,,CLR,0.00,VWS V14.01,2013-06-21 19:42:00,
2013-06-21 15:47:00,81.8,67.1,30.21,SW,216,1.0,8.0,61,0.00,,CLR,0.00,VWS V14.01,2013-06-21 19:47:00,
2013-06-21 15:52:00,81.9,65.7,30.21,ESE,112,2.0,8.0,58,0.00,,CLR,0.00,VWS V14.01,2013-06-21 19:52:00,
2013-06-21 15:57:00,81.9,65.7,30.21,ENE,73,0.0,8.0,58,0.00,,CLR,0.00,VWS V14.01,2013-06-21 19:57:00,
2013-06-21 16:00:00,82.0,68.6,30.21,ENE,68,2.0,8.0,64,0.00,,,0.00,VWS V14.00,2013-06-21 20:00:00,
2013-06-21 16:02:00,81.8,65.1,30.21,North,9,0.0,2.0,57,0.00,,CLR,0.00,VWS V14.01,2013-06-21 20:02:00,
2013-06-21 16:04:00,81.5,65.8,30.21,North,10,1.0,2.0,59,0.00,,CLR,0.00,VWS V14.01,2013-06-21 20:04:00,
2013-06-21 16:09:00,81.4,65.2,30.21,ESE,111,0.0,4.0,58,0.00,,CLR,0.00,VWS V14.01,2013-06-21 20:09:00,
2013-06-21 16:13:00,81.4,65.2,30.20,ENE,74,3.0,5.0,58,0.00,,CLR,0.00,VWS V14.01,2013-06-21 20:13:00,
2013-06-21 16:18:00,81.7,65.0,30.20,NW,323,0.0,8.0,57,0.00,,CLR,0.00,VWS V14.01,2013-06-21 20:18:00,
2013-06-21 16:23:00,81.7,64.5,30.20,ENE,67,3.0,8.0,56,0.00,,CLR,0.00,VWS V14.01,2013-06-21 20:23:00,
2013-06-21 16:28:00,81.7,65.0,30.20,East,101,6.0,8.0,57,0.00,,CLR,0.00,VWS V14.01,2013-06-21 20:28:00,
2013-06-21 16:30:00,81.7,65.5,30.20,East,90,2.0,9.0,58,0.00,,,0.00,VWS V14.00,2013-06-21 20:30:00,
2013-06-21 16:33:00,81.7,65.0,30.20,East,98,5.0,8.0,57,0.00,,CLR,0.00,VWS V14.01,2013-06-21 20:33:00,
2013-06-21 16:38:00,81.3,65.1,30.20,East,84,0.0,8.0,58,0.00,,CLR,0.00,VWS V14.01,2013-06-21 20:38:00,
2013-06-21 16:43:00,80.9,67.1,30.20,SE,128,0.0,8.0,63,0.00,,CLR,0.00,VWS V14.01,2013-06-21 20:43:00,
2013-06-21 16:48:00,81.2,65.0,30.20,ENE,60,2.0,8.0,58,0.00,,CLR,0.00,VWS V14.01,2013-06-21 20:48:00,
2013-06-21 16:53:00,81.6,64.9,30.20,East,94,0.0,8.0,57,0.00,,CLR,0.00,VWS V14.01,2013-06-21 20:53:00,
2013-06-21 16:58:00,81.9,66.7,30.20,East,101,5.0,10.0,60,0.00,,CLR,0.00,VWS V14.01,2013-06-21 20:58:00,
2013-06-21 17:00:00,81.9,67.1,30.20,East,90,2.0,10.0,61,0.00,,,0.00,VWS V14.00,2013-06-21 21:00:00,
2013-06-21 17:03:00,81.8,64.6,30.19,NE,56,5.0,8.0,56,0.00,,CLR,0.00,VWS V14.01,2013-06-21 21:03:00,
2013-06-21 17:04:00,81.8,64.6,30.19,ENE,59,1.0,8.0,56,0.00,,CLR,0.00,VWS V14.01,2013-06-21 21:04:00,
2013-06-21 17:09:00,81.8,65.1,30.19,ESE,123,4.0,11.0,57,0.00,,CLR,0.00,VWS V14.01,2013-06-21 21:09:00,
2013-06-21 17:14:00,81.5,64.8,30.19,ESE,120,0.0,11.0,57,0.00,,CLR,0.00,VWS V14.01,2013-06-21 21:14:00,
2013-06-21 17:19:00,81.3,65.1,30.19,NW,321,2.0,11.0,58,0.00,,CLR,0.00,VWS V14.01,2013-06-21 21:19:00,
2013-06-21 17:24:00,81.3,65.6,30.19,ESE,120,1.0,11.0,59,0.00,,CLR,0.00,VWS V14.01,2013-06-21 21:24:00,
2013-06-21 17:29:00,81.2,65.0,30.19,ESE,123,2.0,11.0,58,0.00,,CLR,0.00,VWS V14.01,2013-06-21 21:29:00,
2013-06-21 17:30:00,81.2,66.5,30.19,East,90,3.0,11.0,61,0.00,,,0.00,VWS V14.00,2013-06-21 21:30:00,
2013-06-21 17:34:00,81.3,64.6,30.19,ENE,78,3.0,7.0,57,0.00,,CLR,0.00,VWS V14.01,2013-06-21 21:34:00,
2013-06-21 17:39:00,81.2,64.0,30.19,ENE,59,0.0,8.0,56,0.00,,CLR,0.00,VWS V14.01,2013-06-21 21:39:00,
2013-06-21 17:44:00,81.4,65.7,30.19,NE,56,1.0,8.0,59,0.00,,CLR,0.00,VWS V14.01,2013-06-21 21:44:00,
2013-06-21 17:49:00,81.3,64.1,30.19,ESE,115,4.0,9.0,56,0.00,,CLR,0.00,VWS V14.01,2013-06-21 21:49:00,
2013-06-21 17:54:00,81.1,63.9,30.19,East,96,2.0,10.0,56,0.00,,CLR,0.00,VWS V14.01,2013-06-21 21:54:00,
2013-06-21 17:59:00,81.0,62.3,30.19,East,98,7.0,10.0,53,0.00,,CLR,0.00,VWS V14.01,2013-06-21 21:59:00,
2013-06-21 18:00:00,81.0,63.8,30.19,East,90,3.0,10.0,56,0.00,,,0.00,VWS V14.00,2013-06-21 22:00:00,
2013-06-21 18:04:00,80.7,63.0,30.19,SE,139,2.0,9.0,55,0.00,,CLR,0.00,VWS V14.01,2013-06-21 22:04:00,
2013-06-21 18:09:00,80.5,61.8,30.19,East,89,0.0,10.0,53,0.00,,CLR,0.00,VWS V14.01,2013-06-21 22:09:00,
2013-06-21 18:14:00,80.4,62.8,30.19,SE,128,2.0,10.0,55,0.00,,CLR,0.00,VWS V14.01,2013-06-21 22:14:00,
2013-06-21 18:19:00,80.4,59.5,30.19,East,88,5.0,10.0,49,0.00,,CLR,0.00,VWS V14.01,2013-06-21 22:19:00,
2013-06-21 18:24:00,80.5,60.7,30.19,SE,126,2.0,10.0,51,0.00,,CLR,0.00,VWS V14.01,2013-06-21 22:24:00,
2013-06-21 18:29:00,80.6,61.9,30.19,ESE,102,3.0,10.0,53,0.00,,CLR,0.00,VWS V14.01,2013-06-21 22:29:00,
2013-06-21 18:30:00,80.6,63.5,30.19,ESE,112,3.0,10.0,56,0.00,,,0.00,VWS V14.00,2013-06-21 22:30:00,
2013-06-21 18:34:00,80.6,59.7,30.19,NE,46,1.0,5.0,49,0.00,,CLR,0.00,VWS V14.01,2013-06-21 22:34:00,
2013-06-21 18:39:00,80.6,60.8,30.18,ENE,75,3.0,5.0,51,0.00,,CLR,0.00,VWS V14.01,2013-06-21 22:39:00,
2013-06-21 18:44:00,80.6,61.9,30.18,ESE,117,3.0,6.0,53,0.00,,CLR,0.00,VWS V14.01,2013-06-21 22:44:00,
2013-06-21 18:49:00,80.3,61.6,30.18,ESE,102,2.0,8.0,53,0.00,,CLR,0.00,VWS V14.01,2013-06-21 22:49:00,
2013-06-21 18:54:00,80.1,59.2,30.18,ENE,60,0.0,8.0,49,0.00,,CLR,0.00,VWS V14.01,2013-06-21 22:54:00,
2013-06-21 18:59:00,79.9,59.6,30.19,NE,51,3.0,3.0,50,0.00,,CLR,0.00,VWS V14.01,2013-06-21 22:59:00,
2013-06-21 19:00:00,79.9,61.3,30.18,ESE,112,2.0,8.0,53,0.00,,,0.00,VWS V14.00,2013-06-21 23:00:00,
2013-06-21 19:04:00,79.6,59.3,30.19,NE,46,0.0,3.0,50,0.00,,CLR,0.00,VWS V14.01,2013-06-21 23:04:00,
2013-06-21 19:09:00,79.6,61.0,30.19,ENE,76,1.0,5.0,53,0.00,,CLR,0.00,VWS V14.01,2013-06-21 23:09:00,
2013-06-21 19:14:00,79.5,60.9,30.19,ESE,104,0.0,5.0,53,0.00,,CLR,0.00,VWS V14.01,2013-06-21 23:14:00,
2013-06-21 19:19:00,79.4,60.8,30.19,East,88,0.0,5.0,53,0.00,,CLR,0.00,VWS V14.01,2013-06-21 23:19:00,
2013-06-21 19:24:00,79.3,61.8,30.19,SE,126,1.0,5.0,55,0.00,,CLR,0.00,VWS V14.01,2013-06-21 23:24:00,
2013-06-21 19:29:00,78.9,61.4,30.19,East,86,0.0,1.0,55,0.00,,CLR,0.00,VWS V14.01,2013-06-21 23:29:00,
2013-06-21 19:30:00,78.9,62.9,30.19,East,90,1.0,5.0,58,0.00,,,0.00,VWS V14.00,2013-06-21 23:30:00,
2013-06-21 19:34:00,78.5,62.0,30.18,East,101,0.0,5.0,57,0.00,,CLR,0.00,VWS V14.01,2013-06-21 23:34:00,
2013-06-21 19:39:00,78.2,62.7,30.18,SE,132,5.0,5.0,59,0.00,,CLR,0.00,VWS V14.01,2013-06-21 23:39:00,
2013-06-21 19:44:00,77.7,61.8,30.18,ESE,114,0.0,5.0,58,0.00,,CLR,0.00,VWS V14.01,2013-06-21 23:44:00,
2013-06-21 19:49:00,77.2,62.7,30.18,ESE,109,2.0,5.0,61,0.00,,CLR,0.00,VWS V14.01,2013-06-21 23:49:00,
2013-06-21 19:54:00,76.7,61.3,30.18,ESE,111,1.0,5.0,59,0.00,,CLR,0.00,VWS V14.01,2013-06-21 23:54:00,
2013-06-21 19:59:00,76.4,62.4,30.18,ESE,105,0.0,0.0,62,0.00,,CLR,0.00,VWS V14.01,2013-06-21 23:59:00,
2013-06-21 20:00:00,76.4,63.8,30.18,ESE,112,1.0,5.0,65,0.00,,,0.00,VWS V14.00,2013-06-22 00:00:00,
2013-06-21 20:04:00,75.9,61.5,30.18,ESE,106,0.0,2.0,61,0.00,,CLR,0.00,VWS V14.01,2013-06-22 00:04:00,
2013-06-21 20:09:00,75.5,62.0,30.18,East,98,2.0,2.0,63,0.00,,CLR,0.00,VWS V14.01,2013-06-22 00:09:00,
2013-06-21 20:14:00,75.1,61.7,30.18,East,95,1.0,2.0,63,0.00,,CLR,0.00,VWS V14.01,2013-06-22 00:14:00,
2013-06-21 20:19:00,74.6,61.6,30.18,East,98,0.0,2.0,64,0.00,,CLR,0.00,VWS V14.01,2013-06-22 00:19:00,
2013-06-21 20:24:00,74.1,61.2,30.18,East,100,0.0,3.0,64,0.00,,CLR,0.00,VWS V14.01,2013-06-22 00:24:00,
2013-06-21 20:29:00,73.6,60.2,30.18,ENE,74,1.0,2.0,63,0.00,,CLR,0.00,VWS V14.01,2013-06-22 00:29:00,
2013-06-21 20:30:00,73.6,61.5,30.18,East,90,1.0,3.0,66,0.00,,,0.00,VWS V14.00,2013-06-22 00:30:00,
2013-06-21 20:34:00,73.1,61.9,30.19,East,80,0.0,3.0,68,0.00,,CLR,0.00,VWS V14.01,2013-06-22 00:34:00,
2013-06-21 20:39:00,72.3,60.3,30.19,ENE,77,0.0,3.0,66,0.00,,CLR,0.00,VWS V14.01,2013-06-22 00:39:00,
2013-06-21 20:44:00,71.6,60.5,30.19,ENE,77,0.0,3.0,68,0.00,,CLR,0.00,VWS V14.01,2013-06-22 00:44:00,
2013-06-21 20:49:00,70.8,60.5,30.19,ENE,77,0.0,3.0,70,0.00,,CLR,0.00,VWS V14.01,2013-06-22 00:49:00,
2013-06-21 20:54:00,70.3,60.9,30.19,ENE,77,0.0,3.0,72,0.00,,CLR,0.00,VWS V14.01,2013-06-22 00:54:00,
2013-06-21 20:59:00,69.8,60.8,30.19,ENE,77,0.0,0.0,73,0.00,,CLR,0.00,VWS V14.01,2013-06-22 00:59:00,
2013-06-21 21:00:00,69.8,61.9,30.19,East,90,0.0,3.0,76,0.00,,,0.00,VWS V14.00,2013-06-22 01:00:00,
2013-06-21 21:04:00,69.2,60.2,30.19,ENE,77,0.0,0.0,73,0.00,,CLR,0.00,VWS V14.01,2013-06-22 01:04:00,
2013-06-21 21:10:00,68.8,60.9,30.19,ENE,77,0.0,0.0,76,0.00,,CLR,0.00,VWS V14.01,2013-06-22 01:10:00,
2013-06-21 21:15:00,68.5,61.4,30.19,ENE,77,0.0,0.0,78,0.00,,CLR,0.00,VWS V14.01,2013-06-22 01:15:00,
2013-06-21 21:20:00,68.1,61.7,30.19,ENE,77,0.0,0.0,80,0.00,,CLR,0.00,VWS V14.01,2013-06-22 01:20:00,
2013-06-21 21:25:00,67.5,61.8,30.19,ENE,77,0.0,0.0,82,0.00,,CLR,0.00,VWS V14.01,2013-06-22 01:25:00,
2013-06-21 21:30:00,66.9,61.6,30.19,ENE,77,0.0,0.0,83,0.00,,CLR,0.00,VWS V14.01,2013-06-22 01:30:00,
2013-06-21 21:35:00,66.6,61.3,30.20,ENE,77,0.0,0.0,83,0.00,,CLR,0.00,VWS V14.01,2013-06-22 01:35:00,
2013-06-21 21:40:00,66.3,61.3,30.20,ENE,77,0.0,0.0,84,0.00,,CLR,0.00,VWS V14.01,2013-06-22 01:40:00,
2013-06-21 21:45:00,65.8,61.5,30.20,ENE,77,0.0,0.0,86,0.00,,CLR,0.00,VWS V14.01,2013-06-22 01:45:00,
2013-06-21 21:50:00,65.2,60.9,30.19,ENE,77,0.0,0.0,86,0.00,,CLR,0.00,VWS V14.01,2013-06-22 01:50:00,
2013-06-21 21:55:00,64.7,60.8,30.20,ENE,77,0.0,0.0,87,0.00,,CLR,0.00,VWS V14.01,2013-06-22 01:55:00,
2013-06-21 22:00:00,64.3,60.7,30.20,ENE,77,0.0,0.0,88,0.00,,CLR,0.00,VWS V14.01,2013-06-22 02:00:00,
2013-06-21 22:05:00,63.9,60.6,30.20,ENE,77,0.0,0.0,89,0.00,,CLR,0.00,VWS V14.01,2013-06-22 02:05:00,
2013-06-21 22:10:00,63.5,60.2,30.20,ENE,77,0.0,0.0,89,0.00,,CLR,0.00,VWS V14.01,2013-06-22 02:10:00,
2013-06-21 22:15:00,63.3,60.3,30.20,ENE,77,0.0,0.0,90,0.00,,CLR,0.00,VWS V14.01,2013-06-22 02:15:00,
2013-06-21 22:20:00,63.1,60.1,30.20,ENE,77,0.0,0.0,90,0.00,,CLR,0.00,VWS V14.01,2013-06-22 02:20:00,
2013-06-21 22:25:00,62.9,60.2,30.20,ENE,77,0.0,0.0,91,0.00,,CLR,0.00,VWS V14.01,2013-06-22 02:25:00,
2013-06-21 22:30:00,62.7,60.0,30.20,ENE,77,0.0,0.0,91,0.00,,CLR,0.00,VWS V14.01,2013-06-22 02:30:00,
2013-06-21 22:35:00,62.5,59.8,30.20,ENE,77,0.0,0.0,91,0.00,,CLR,0.00,VWS V14.01,2013-06-22 02:35:00,
2013-06-21 22:40:00,62.4,60.0,30.21,ENE,77,0.0,0.0,92,0.00,,CLR,0.00,VWS V14.01,2013-06-22 02:40:00,
2013-06-21 22:45:00,62.2,59.8,30.21,ENE,77,0.0,0.0,92,0.00,,CLR,0.00,VWS V14.01,2013-06-22 02:45:00,
2013-06-21 22:50:00,62.0,59.7,30.21,ENE,77,0.0,0.0,92,0.00,,CLR,0.00,VWS V14.01,2013-06-22 02:50:00,
2013-06-21 22:55:00,61.8,59.5,30.21,ENE,77,0.0,0.0,92,0.00,,CLR,0.00,VWS V14.01,2013-06-22 02:55:00,
2013-06-21 23:00:00,61.6,59.6,30.21,ENE,77,0.0,0.0,93,0.00,,CLR,0.00,VWS V14.01,2013-06-22 03:00:00,
2013-06-21 23:05:00,61.4,59.4,30.20,ENE,77,0.0,0.0,93,0.00,,CLR,0.00,VWS V14.01,2013-06-22 03:05:00,
2013-06-21 23:10:00,61.3,59.3,30.21,ENE,77,0.0,0.0,93,0.00,,CLR,0.00,VWS V14.01,2013-06-22 03:10:00,
2013-06-21 23:15:00,61.2,59.2,30.21,ENE,77,0.0,0.0,93,0.00,,CLR,0.00,VWS V14.01,2013-06-22 03:15:00,
2013-06-21 23:20:00,61.0,59.0,30.21,ENE,77,0.0,0.0,93,0.00,,CLR,0.00,VWS V14.01,2013-06-22 03:20:00,
2013-06-21 23:25:00,60.9,58.9,30.21,ENE,77,0.0,0.0,93,0.00,,CLR,0.00,VWS V14.01,2013-06-22 03:25:00,
2013-06-21 23:30:00,60.9,58.9,30.21,ENE,77,0.0,0.0,93,0.00,,CLR,0.00,VWS V14.01,2013-06-22 03:30:00,
2013-06-21 23:35:00,60.8,59.1,30.21,ENE,77,0.0,0.0,94,0.00,,CLR,0.00,VWS V14.01,2013-06-22 03:35:00,
2013-06-21 23:40:00,60.7,59.0,30.21,ENE,77,0.0,0.0,94,0.00,,CLR,0.00,VWS V14.01,2013-06-22 03:40:00,
2013-06-21 23:45:00,60.7,59.0,30.21,ENE,77,0.0,0.0,94,0.00,,CLR,0.00,VWS V14.01,2013-06-22 03:45:00,
2013-06-21 23:50:00,60.6,58.9,30.21,ENE,77,0.0,0.0,94,0.00,,CLR,0.00,VWS V14.01,2013-06-22 03:50:00,
2013-06-21 23:55:00,60.5,58.8,30.21,ENE,77,0.0,0.0,94,0.00,,CLR,0.00,VWS V14.01,2013-06-22 03:55:00,